KGLE

Gainesville Municipal Airport

Gainesville, Texas, USA
METAR KGLE 190635Z AUTO 36016G23KT 10SM CLR 11/08 A2972 RMK AO2 T01100076
Observed Flight Rules
Jan-19 @ 06:35 UTC (40 minutes ago) Visual Flight Rules
Wind Visibility Clouds
360° at 16 knots
 Gusting to 23 knots
10 miles
  • Clear skies
Temperatures Readings
Current 11°C / 52°F
Dewpoint 8°C / 46°F
Humidity 82%
Altimeter 29.72" Hg
Pressure 1006.42 hPa
Elevation 256
METAR KGLE 190635Z AUTO 36016G23KT 10SM CLR 11/08 A2972 RMK AO2 T01100076
Observed Flight Rules
Jan-19 @ 06:35 UTC
(40 minutes ago)
VFR
Wind Visibility
360° at 16 knots
 Gusting to 23 knots
10 miles
Clouds
  • Clear skies
Temperature Dewpoint
11°C / 52°F 8°C / 46°F
Humidity Altimeter Pressure
82% 29.72" Hg 1006.42 hPa